createdAt,value
2022-12-18T00:01:26.422Z,32.80
2022-12-18T00:03:56.438Z,42.70
2022-12-18T00:06:26.549Z,37.10
2022-12-18T00:08:55.434Z,39.00
2022-12-18T00:11:25.655Z,36.50
2022-12-18T00:13:55.497Z,39.00
2022-12-18T00:16:25.376Z,42.30
2022-12-18T00:18:55.792Z,42.40
2022-12-18T00:21:27.120Z,45.70
2022-12-18T00:23:56.278Z,30.80
2022-12-18T00:26:27.595Z,23.80
2022-12-18T00:29:00.673Z,50.60
2022-12-18T00:31:28.597Z,39.60
2022-12-18T00:33:57.566Z,32.90
2022-12-18T00:36:28.528Z,44.10
2022-12-18T00:38:57.462Z,34.80
2022-12-18T00:41:45.089Z,39.40
2022-12-18T00:44:15.612Z,39.20
2022-12-18T00:46:43.959Z,43.50
2022-12-18T00:52:42.635Z,38.20
2022-12-18T00:55:10.786Z,31.70
2022-12-18T00:57:38.678Z,40.20
2022-12-18T01:00:10.883Z,23.60
2022-12-18T01:02:38.718Z,27.40
2022-12-18T01:05:10.345Z,33.70
2022-12-18T01:07:38.281Z,29.00
2022-12-18T01:10:07.037Z,30.60
2022-12-18T01:12:36.655Z,17.40
2022-12-18T01:15:05.813Z,36.30
2022-12-18T01:17:34.388Z,35.50
2022-12-18T01:20:02.409Z,29.40
2022-12-18T01:22:30.275Z,37.10
2022-12-18T01:24:58.014Z,36.50
2022-12-18T01:27:25.891Z,31.80
2022-12-18T01:29:54.175Z,36.20
2022-12-18T01:32:21.974Z,35.10
2022-12-18T01:34:51.415Z,40.80
2022-12-18T01:37:19.176Z,37.70
2022-12-18T01:39:47.154Z,27.20
2022-12-18T01:42:15.926Z,34.20
2022-12-18T01:45:00.455Z,29.50
2022-12-18T01:47:54.057Z,34.10
2022-12-18T01:50:35.066Z,37.60
2022-12-18T01:53:19.722Z,34.00
2022-12-18T01:55:56.524Z,32.90
2022-12-18T01:58:56.113Z,32.20
2022-12-18T02:01:24.781Z,26.90
2022-12-18T02:03:52.938Z,37.10
2022-12-18T02:06:37.980Z,33.60
2022-12-18T02:09:16.325Z,38.30
2022-12-18T02:11:53.568Z,37.40
2022-12-18T02:14:45.010Z,38.00
2022-12-18T02:17:19.140Z,36.40
2022-12-18T02:20:18.103Z,30.90
2022-12-18T02:23:07.351Z,34.30
2022-12-18T02:25:58.472Z,36.90
2022-12-18T02:28:29.288Z,23.20
2022-12-18T02:31:02.127Z,40.10
2022-12-18T02:33:30.137Z,34.80
2022-12-18T02:35:57.985Z,38.30
2022-12-18T02:38:27.587Z,36.00
2022-12-18T02:40:55.966Z,34.50
2022-12-18T02:43:23.902Z,42.80
2022-12-18T02:45:57.339Z,43.40
2022-12-18T02:48:33.906Z,36.00
2022-12-18T02:51:18.962Z,31.50
2022-12-18T02:53:56.499Z,39.30
2022-12-18T02:56:32.362Z,36.00
2022-12-18T02:59:03.789Z,40.90
2022-12-18T03:02:23.531Z,35.00
2022-12-18T03:05:20.716Z,32.40
2022-12-18T03:07:59.929Z,38.40
2022-12-18T03:10:33.641Z,30.50
2022-12-18T03:13:09.934Z,35.90
2022-12-18T03:15:58.721Z,33.20
2022-12-18T03:18:31.747Z,35.90
2022-12-18T03:21:03.505Z,28.50
2022-12-18T03:23:36.336Z,28.20
2022-12-18T03:26:08.842Z,30.40
2022-12-18T03:28:50.439Z,28.50
2022-12-18T03:31:20.833Z,27.70
2022-12-18T03:33:54.381Z,35.80
2022-12-18T03:36:26.421Z,30.20
2022-12-18T03:38:54.640Z,29.10
2022-12-18T03:41:56.890Z,33.00
2022-12-18T03:44:56.717Z,27.50
2022-12-18T03:47:58.213Z,37.30
2022-12-18T03:50:58.800Z,33.10
2022-12-18T03:53:33.942Z,36.70
2022-12-18T03:56:02.182Z,35.80
2022-12-18T03:58:34.462Z,38.10
2022-12-18T04:01:21.785Z,36.20
2022-12-18T04:03:50.498Z,30.50
2022-12-18T04:06:19.649Z,41.80
2022-12-18T04:08:47.617Z,35.20
2022-12-18T04:11:17.783Z,36.70
2022-12-18T04:13:46.274Z,36.70
2022-12-18T04:16:21.733Z,30.10
2022-12-18T04:18:53.503Z,31.90
2022-12-18T04:21:22.168Z,37.30
2022-12-18T04:23:50.490Z,34.80
2022-12-18T04:26:19.903Z,34.30
2022-12-18T04:29:14.168Z,35.60
2022-12-18T04:31:42.110Z,38.10
2022-12-18T04:34:11.798Z,36.10
2022-12-18T04:36:44.482Z,29.30
2022-12-18T04:39:12.565Z,33.00
2022-12-18T04:41:40.487Z,31.10
2022-12-18T04:44:08.301Z,32.70
2022-12-18T04:46:36.101Z,27.50
2022-12-18T04:49:04.022Z,34.80
2022-12-18T04:51:31.910Z,32.80
2022-12-18T04:53:59.739Z,35.00
2022-12-18T04:56:27.540Z,29.00
2022-12-18T04:58:55.277Z,26.00
2022-12-18T05:01:23.153Z,34.50
2022-12-18T05:03:52.573Z,34.60
2022-12-18T05:06:20.625Z,24.80
2022-12-18T05:08:48.580Z,30.80
2022-12-18T05:12:02.384Z,41.00
2022-12-18T05:14:30.498Z,39.00
2022-12-18T05:17:01.065Z,23.70
2022-12-18T05:19:29.309Z,41.80
2022-12-18T05:21:57.706Z,41.90
2022-12-18T05:24:26.013Z,41.30
2022-12-18T05:26:53.901Z,28.60
2022-12-18T05:29:21.767Z,37.80
2022-12-18T05:31:49.625Z,28.40
2022-12-18T05:34:17.536Z,36.90
2022-12-18T05:36:45.346Z,30.20
2022-12-18T05:39:13.211Z,33.90
2022-12-18T05:41:41.002Z,34.70
2022-12-18T05:44:09.511Z,39.50
2022-12-18T05:46:37.421Z,34.80
2022-12-18T05:49:10.917Z,32.20
2022-12-18T05:51:38.735Z,39.90
2022-12-18T05:54:07.244Z,31.80
2022-12-18T05:56:35.309Z,36.10
2022-12-18T05:59:03.219Z,31.60
2022-12-18T06:01:31.132Z,30.50
2022-12-18T06:03:59.263Z,26.20
2022-12-18T06:06:28.502Z,41.70
2022-12-18T06:08:56.504Z,35.50
2022-12-18T06:11:27.065Z,40.10
2022-12-18T06:13:58.647Z,36.60
2022-12-18T06:16:28.574Z,43.70
2022-12-18T06:19:00.589Z,29.00
2022-12-18T06:21:28.878Z,31.70
2022-12-18T06:23:56.835Z,30.00
2022-12-18T06:26:28.369Z,36.30
2022-12-18T06:28:56.636Z,35.10
2022-12-18T06:31:24.787Z,36.30
2022-12-18T06:33:53.160Z,36.00
2022-12-18T06:36:21.991Z,41.00
2022-12-18T06:38:50.137Z,35.30
2022-12-18T06:41:20.652Z,36.90
2022-12-18T06:43:48.599Z,39.20
2022-12-18T06:46:16.834Z,32.00
2022-12-18T06:48:49.846Z,32.00
2022-12-18T06:51:22.602Z,31.60
2022-12-18T06:53:50.780Z,32.50
2022-12-18T06:56:18.901Z,29.80
2022-12-18T06:58:46.653Z,29.90
2022-12-18T07:01:15.035Z,42.30
2022-12-18T07:03:44.009Z,39.40
2022-12-18T07:06:18.136Z,40.90
2022-12-18T07:08:47.044Z,34.80
2022-12-18T07:11:16.649Z,37.10
2022-12-18T07:13:44.896Z,32.70
2022-12-18T07:16:22.332Z,37.20
2022-12-18T07:18:54.084Z,28.90
2022-12-18T07:21:22.227Z,26.50
2022-12-18T07:23:50.308Z,37.00
2022-12-18T07:26:20.111Z,40.20
2022-12-18T07:28:48.009Z,40.90
2022-12-18T07:31:19.638Z,37.80
2022-12-18T07:33:49.684Z,42.40
2022-12-18T07:36:17.697Z,39.10
2022-12-18T07:38:48.881Z,26.00
2022-12-18T07:41:16.898Z,37.20
2022-12-18T07:43:45.003Z,31.50
2022-12-18T07:46:15.130Z,35.50
2022-12-18T07:48:43.793Z,31.90
2022-12-18T07:51:14.333Z,40.80
2022-12-18T07:53:43.452Z,34.20
2022-12-18T07:56:30.132Z,34.60
2022-12-18T07:58:59.650Z,37.90
2022-12-18T08:01:30.428Z,24.40
2022-12-18T08:03:58.534Z,36.10
2022-12-18T08:06:26.725Z,27.90
2022-12-18T08:08:55.809Z,39.40
2022-12-18T08:11:25.218Z,40.30
2022-12-18T08:13:53.726Z,38.90
2022-12-18T08:16:22.424Z,41.40
2022-12-18T08:18:50.775Z,27.50
2022-12-18T08:21:23.994Z,32.90
2022-12-18T08:23:52.900Z,30.30
2022-12-18T08:26:20.897Z,37.50
2022-12-18T08:28:50.232Z,28.40
2022-12-18T08:31:19.769Z,33.60
2022-12-18T08:33:50.567Z,35.50
2022-12-18T08:36:18.745Z,40.30
2022-12-18T08:38:47.402Z,32.20
2022-12-18T08:41:16.726Z,31.60
2022-12-18T08:44:03.219Z,31.70
2022-12-18T08:46:37.889Z,39.90
2022-12-18T08:49:06.523Z,31.10
2022-12-18T08:51:34.914Z,35.10
2022-12-18T08:54:02.894Z,30.80
2022-12-18T08:56:32.113Z,35.10
2022-12-18T08:58:59.972Z,37.00
2022-12-18T09:01:28.354Z,41.80
2022-12-18T09:03:56.377Z,35.80
2022-12-18T09:06:24.260Z,39.00
2022-12-18T09:08:52.266Z,44.90
2022-12-18T09:11:23.612Z,45.90
2022-12-18T09:13:51.519Z,28.70
2022-12-18T09:16:20.773Z,35.90
2022-12-18T09:18:48.828Z,42.10
2022-12-18T09:21:19.551Z,36.90
2022-12-18T09:23:54.774Z,36.60
2022-12-18T09:26:23.628Z,30.10
2022-12-18T09:28:51.585Z,34.90
2022-12-18T09:31:22.352Z,26.30
2022-12-18T09:33:50.440Z,35.80
2022-12-18T09:36:18.798Z,27.30
2022-12-18T09:38:46.632Z,31.80
2022-12-18T09:41:54.293Z,36.50
2022-12-18T09:44:45.341Z,41.30
2022-12-18T09:47:30.123Z,32.10
2022-12-18T09:50:02.312Z,26.70
2022-12-18T09:52:38.739Z,31.40
2022-12-18T09:55:35.142Z,36.10
2022-12-18T09:58:16.667Z,32.10
2022-12-18T10:00:45.780Z,39.90
2022-12-18T10:03:15.365Z,27.60
2022-12-18T10:06:13.624Z,37.30
2022-12-18T10:09:07.114Z,37.80
2022-12-18T10:11:54.884Z,34.60
2022-12-18T10:15:03.420Z,33.80
2022-12-18T10:17:47.398Z,35.80
2022-12-18T10:20:49.995Z,33.70
2022-12-18T10:23:47.988Z,33.10
2022-12-18T10:26:16.458Z,32.30
2022-12-18T10:28:45.337Z,26.80
2022-12-18T10:31:24.501Z,33.70
2022-12-18T10:33:54.918Z,33.50
2022-12-18T10:36:25.420Z,39.00
2022-12-18T10:38:53.818Z,40.60
2022-12-18T10:41:23.128Z,31.20
2022-12-18T10:44:11.249Z,32.60
2022-12-18T10:46:39.812Z,24.20
2022-12-18T10:49:20.166Z,25.90
2022-12-18T10:51:48.069Z,33.80
2022-12-18T10:54:22.532Z,31.60
2022-12-18T10:56:50.551Z,28.40
2022-12-18T10:59:18.934Z,30.70
2022-12-18T11:01:56.807Z,28.80
2022-12-18T11:04:27.844Z,34.70
2022-12-18T11:07:09.198Z,29.00
2022-12-18T11:09:39.005Z,29.60
2022-12-18T11:12:19.343Z,22.90
2022-12-18T11:14:49.912Z,33.30
2022-12-18T11:17:25.834Z,36.70
2022-12-18T11:20:01.375Z,33.20
2022-12-18T11:22:31.956Z,39.50
2022-12-18T11:28:06.103Z,38.00
2022-12-18T11:30:37.557Z,30.40
2022-12-18T11:33:23.509Z,31.00
2022-12-18T11:36:44.592Z,37.10
2022-12-18T11:39:41.780Z,33.30
2022-12-18T11:42:23.923Z,43.00
2022-12-18T11:45:11.522Z,33.60
2022-12-18T11:48:01.930Z,28.30
2022-12-18T11:50:56.754Z,26.20
2022-12-18T11:53:28.534Z,24.50
2022-12-18T11:56:27.210Z,32.90
2022-12-18T11:59:23.452Z,33.50
2022-12-18T12:01:58.354Z,28.30
2022-12-18T12:05:13.275Z,37.30
2022-12-18T12:08:22.010Z,30.60
2022-12-18T12:11:05.353Z,24.90
2022-12-18T12:13:58.954Z,28.70
2022-12-18T12:16:51.295Z,26.80
2022-12-18T12:20:02.464Z,36.30
2022-12-18T12:23:12.076Z,32.40
2022-12-18T12:25:50.639Z,21.70
2022-12-18T12:29:10.744Z,26.80
2022-12-18T12:32:04.513Z,25.00
2022-12-18T12:34:57.659Z,27.20
2022-12-18T12:37:55.810Z,30.20
2022-12-18T12:40:51.424Z,31.20
2022-12-18T12:43:27.018Z,32.10
2022-12-18T12:46:07.805Z,34.60
2022-12-18T12:48:51.390Z,25.80
2022-12-18T12:51:31.329Z,28.10
2022-12-18T12:53:59.477Z,29.30
2022-12-18T12:56:51.396Z,35.60
2022-12-18T12:59:42.700Z,32.00
2022-12-18T13:02:32.361Z,25.30
2022-12-18T13:05:36.021Z,34.60
2022-12-18T13:08:11.604Z,23.40
2022-12-18T13:10:43.217Z,32.40
2022-12-18T13:13:13.517Z,25.00
2022-12-18T13:16:08.107Z,26.70
2022-12-18T13:18:36.450Z,26.90
2022-12-18T13:21:22.360Z,31.90
2022-12-18T13:23:50.099Z,32.00
2022-12-18T13:26:20.857Z,34.10
2022-12-18T13:28:54.944Z,40.40
2022-12-18T13:34:32.094Z,41.90
2022-12-18T13:37:32.835Z,36.30
2022-12-18T13:40:00.902Z,35.70
2022-12-18T13:42:58.002Z,30.40
2022-12-18T13:45:47.703Z,28.20
2022-12-18T13:48:24.537Z,27.70
2022-12-18T13:51:04.510Z,34.30
2022-12-18T13:53:51.093Z,34.60
2022-12-18T13:56:22.199Z,25.50
2022-12-18T13:59:19.582Z,44.00
2022-12-18T14:01:57.827Z,40.10
2022-12-18T14:04:30.513Z,27.70
2022-12-18T14:07:04.137Z,34.40
2022-12-18T14:09:38.104Z,40.70
2022-12-18T14:12:36.968Z,32.40
2022-12-18T14:15:06.763Z,32.80
2022-12-18T14:17:34.587Z,24.80
2022-12-18T14:20:03.609Z,35.90
2022-12-18T14:22:31.388Z,39.60
2022-12-18T14:25:14.515Z,36.70
2022-12-18T14:27:48.288Z,37.60
2022-12-18T14:30:25.486Z,35.40
2022-12-18T14:33:10.785Z,21.70
2022-12-18T14:35:41.648Z,29.80
2022-12-18T14:38:23.325Z,27.00
2022-12-18T14:41:05.583Z,38.20
2022-12-18T14:43:38.981Z,29.70
2022-12-18T14:46:36.248Z,31.60
2022-12-18T14:49:18.893Z,39.50
2022-12-18T14:51:55.658Z,19.00
2022-12-18T14:54:24.558Z,23.80
2022-12-18T14:57:07.030Z,27.10
2022-12-18T14:59:35.020Z,32.90
2022-12-18T15:02:19.822Z,20.00
2022-12-18T15:04:50.276Z,33.40
2022-12-18T15:07:23.720Z,35.40
2022-12-18T15:10:03.780Z,35.70
2022-12-18T15:12:49.698Z,47.10
2022-12-18T15:15:37.227Z,49.90
2022-12-18T15:18:09.839Z,56.30
2022-12-18T15:20:50.667Z,72.30
2022-12-18T15:23:24.423Z,79.10
2022-12-18T15:26:00.076Z,72.40
2022-12-18T15:28:34.584Z,54.10
2022-12-18T15:31:14.753Z,60.00
2022-12-18T15:33:54.033Z,40.20
2022-12-18T15:36:26.408Z,37.50
2022-12-18T15:39:05.025Z,36.30
2022-12-18T15:41:36.213Z,32.20
2022-12-18T15:44:21.326Z,31.20
2022-12-18T15:46:49.526Z,18.70
2022-12-18T15:49:19.301Z,42.20
2022-12-18T15:51:47.177Z,45.90
2022-12-18T15:54:18.273Z,51.40
2022-12-18T15:57:04.859Z,62.60
2022-12-18T15:59:33.005Z,47.70
2022-12-18T16:02:01.362Z,43.90
2022-12-18T16:04:30.304Z,40.70
2022-12-18T16:07:14.568Z,39.00
2022-12-18T16:09:43.074Z,30.60
2022-12-18T16:12:20.729Z,37.50
2022-12-18T16:14:48.706Z,40.30
2022-12-18T16:17:21.945Z,34.70
2022-12-18T16:19:50.109Z,43.10
2022-12-18T16:22:29.869Z,38.60
2022-12-18T16:24:57.929Z,42.50
2022-12-18T16:27:26.225Z,32.00
2022-12-18T16:29:54.357Z,34.40
2022-12-18T16:32:25.351Z,21.30
2022-12-18T16:34:53.580Z,31.40
2022-12-18T16:37:21.822Z,25.40
2022-12-18T16:39:49.865Z,47.50
2022-12-18T16:42:20.293Z,46.20
2022-12-18T16:44:50.115Z,51.00
2022-12-18T16:47:19.153Z,28.50
2022-12-18T16:49:47.322Z,35.90
2022-12-18T16:52:16.757Z,38.30
2022-12-18T16:54:46.396Z,41.10
2022-12-18T16:57:17.207Z,42.00
2022-12-18T16:59:45.799Z,44.20
2022-12-18T17:02:17.220Z,22.30
2022-12-18T17:04:47.564Z,29.90
2022-12-18T17:07:15.683Z,31.30
2022-12-18T17:09:43.806Z,30.00
2022-12-18T17:12:11.830Z,21.20
2022-12-18T17:14:39.988Z,34.30
2022-12-18T17:17:24.925Z,32.60
2022-12-18T17:19:52.908Z,35.80
2022-12-18T17:22:24.184Z,24.50
2022-12-18T17:24:53.615Z,16.40
2022-12-18T17:27:21.632Z,21.00
2022-12-18T17:29:51.082Z,33.30
2022-12-18T17:32:19.177Z,21.50
2022-12-18T17:34:47.144Z,36.70
2022-12-18T17:37:15.619Z,41.30
2022-12-18T17:39:43.615Z,49.10
2022-12-18T17:42:14.049Z,29.40
2022-12-18T17:44:44.447Z,32.50
2022-12-18T17:47:13.581Z,38.00
2022-12-18T17:49:44.847Z,32.80
2022-12-18T17:52:12.926Z,39.00
2022-12-18T17:54:42.466Z,38.60
2022-12-18T17:57:10.625Z,19.40
2022-12-18T17:59:38.963Z,27.10
2022-12-18T18:02:07.483Z,33.60
2022-12-18T18:04:36.389Z,35.00
2022-12-18T18:07:04.276Z,43.80
2022-12-18T18:09:32.648Z,46.20
2022-12-18T18:12:21.771Z,39.50
2022-12-18T18:14:50.833Z,45.70
2022-12-18T18:17:24.673Z,43.00
2022-12-18T18:19:52.580Z,41.10
2022-12-18T18:22:20.452Z,43.80
2022-12-18T18:24:48.476Z,39.70
2022-12-18T18:27:16.385Z,32.10
2022-12-18T18:29:47.898Z,20.40
2022-12-18T18:32:15.905Z,38.70
2022-12-18T18:34:43.802Z,22.70
2022-12-18T18:37:12.376Z,30.40
2022-12-18T18:39:40.376Z,31.80
2022-12-18T18:42:08.436Z,26.20
2022-12-18T18:44:36.361Z,33.80
2022-12-18T18:47:06.320Z,35.90
2022-12-18T18:49:37.395Z,28.80
2022-12-18T18:52:07.139Z,22.90
2022-12-18T18:54:35.036Z,32.00
2022-12-18T18:57:19.868Z,40.60
2022-12-18T18:59:48.470Z,41.70
2022-12-18T19:02:16.557Z,29.80
2022-12-18T19:04:46.690Z,23.70
2022-12-18T19:10:41.931Z,13.50
2022-12-18T19:13:24.932Z,29.90
2022-12-18T19:16:02.733Z,35.80
2022-12-18T19:18:30.534Z,33.20
2022-12-18T19:21:01.120Z,19.80
2022-12-18T19:23:30.173Z,23.50
2022-12-18T19:26:26.937Z,21.40
2022-12-18T19:28:53.381Z,23.50
2022-12-18T19:31:25.432Z,31.30
2022-12-18T19:33:54.972Z,38.10
2022-12-18T19:36:28.715Z,23.50
2022-12-18T19:38:59.012Z,21.30
2022-12-18T19:41:29.133Z,28.10
2022-12-18T19:43:59.969Z,29.70
2022-12-18T19:46:29.587Z,21.90
2022-12-18T19:48:59.907Z,39.60
2022-12-18T19:51:29.762Z,33.00
2022-12-18T19:53:59.907Z,36.90
2022-12-18T19:56:32.830Z,27.10
2022-12-18T19:59:00.844Z,32.10
2022-12-18T20:01:29.907Z,30.60
2022-12-18T20:03:58.250Z,29.90
2022-12-18T20:06:34.404Z,25.10
2022-12-18T20:09:05.638Z,31.50
2022-12-18T20:11:41.602Z,42.10
2022-12-18T20:14:12.018Z,33.70
2022-12-18T20:16:40.378Z,16.70
2022-12-18T20:19:08.768Z,20.40
2022-12-18T20:21:37.142Z,30.40
2022-12-18T20:24:06.959Z,34.70
2022-12-18T20:26:34.775Z,27.80
2022-12-18T20:29:02.549Z,29.20
2022-12-18T20:31:30.517Z,21.50
2022-12-18T20:34:01.526Z,37.00
2022-12-18T20:36:32.893Z,22.70
2022-12-18T20:39:05.044Z,25.10
2022-12-18T20:41:38.794Z,32.30
2022-12-18T20:44:15.541Z,29.20
2022-12-18T20:46:56.841Z,26.80
2022-12-18T20:49:26.167Z,29.70
2022-12-18T20:51:56.300Z,29.50
2022-12-18T20:54:26.158Z,25.80
2022-12-18T20:56:54.496Z,16.40
2022-12-18T20:59:23.314Z,22.20
2022-12-18T21:01:52.511Z,26.30
2022-12-18T21:04:20.793Z,25.10
2022-12-18T21:07:00.438Z,27.90
2022-12-18T21:09:37.498Z,21.40
2022-12-18T21:12:48.283Z,26.10
2022-12-18T21:15:22.827Z,22.50
2022-12-18T21:17:54.704Z,27.60
2022-12-18T21:20:22.509Z,18.10
2022-12-18T21:22:50.359Z,32.10
2022-12-18T21:25:18.308Z,31.40
2022-12-18T21:27:46.149Z,27.80
2022-12-18T21:30:15.147Z,23.20
2022-12-18T21:32:43.012Z,20.10
2022-12-18T21:35:10.808Z,22.50
2022-12-18T21:37:38.589Z,25.40
2022-12-18T21:40:07.976Z,33.20
2022-12-18T21:42:54.590Z,25.00
2022-12-18T21:45:22.364Z,23.30
2022-12-18T21:47:50.224Z,17.00
2022-12-18T21:50:18.122Z,23.20
2022-12-18T21:52:46.044Z,21.80
2022-12-18T21:55:13.861Z,19.20
2022-12-18T21:57:41.757Z,20.00
2022-12-18T22:00:18.859Z,20.30
2022-12-18T22:03:00.503Z,16.40
2022-12-18T22:05:37.279Z,27.10
2022-12-18T22:08:07.037Z,19.40
2022-12-18T22:10:35.446Z,18.00
2022-12-18T22:13:07.071Z,23.20
2022-12-18T22:15:34.931Z,15.60
2022-12-18T22:18:02.851Z,19.80
2022-12-18T22:20:30.846Z,17.90
2022-12-18T22:23:01.022Z,18.80
2022-12-18T22:25:35.288Z,16.70
2022-12-18T22:28:24.622Z,17.90
2022-12-18T22:30:54.089Z,16.70
2022-12-18T22:33:28.503Z,17.40
2022-12-18T22:35:56.568Z,15.80
2022-12-18T22:38:24.377Z,16.10
2022-12-18T22:40:52.181Z,19.10
2022-12-18T22:43:20.175Z,21.50
2022-12-18T22:45:49.071Z,16.10
2022-12-18T22:48:16.875Z,16.10
2022-12-18T22:50:44.631Z,18.40
2022-12-18T22:53:12.441Z,19.20
2022-12-18T22:55:40.144Z,19.20
2022-12-18T22:58:08.142Z,19.60
2022-12-18T23:00:35.949Z,28.70
2022-12-18T23:03:04.225Z,25.40
2022-12-18T23:05:35.503Z,20.20
2022-12-18T23:08:03.367Z,21.20
2022-12-18T23:10:31.079Z,14.60
2022-12-18T23:12:58.961Z,18.40
2022-12-18T23:15:28.351Z,26.50
2022-12-18T23:17:58.297Z,22.30
2022-12-18T23:20:26.997Z,21.70
2022-12-18T23:22:54.810Z,22.20
2022-12-18T23:25:22.943Z,23.50
2022-12-18T23:27:50.906Z,22.70
2022-12-18T23:30:19.182Z,20.10
2022-12-18T23:32:47.169Z,14.90
2022-12-18T23:35:16.087Z,19.50
2022-12-18T23:38:02.130Z,20.50
2022-12-18T23:40:30.171Z,24.20
2022-12-18T23:42:59.260Z,20.20
2022-12-18T23:45:27.059Z,23.10
2022-12-18T23:47:54.932Z,21.70
2022-12-18T23:50:29.105Z,21.90
2022-12-18T23:53:05.568Z,15.40
2022-12-18T23:55:41.212Z,20.90
2022-12-18T23:58:20.404Z,10.90
